sensor_id;sensor_type;location;lat;lon;timestamp;P1;durP1;ratioP1;P2;durP2;ratioP2
8544;SDS011;4310;51.054;6.994;2022-12-29T00:00:08;22.30;;;21.40;;
8544;SDS011;4310;51.054;6.994;2022-12-29T00:01:13;23.45;;;22.55;;
8544;SDS011;4310;51.054;6.994;2022-12-29T00:03:28;26.35;;;25.30;;
8544;SDS011;4310;51.054;6.994;2022-12-29T00:04:32;26.93;;;25.82;;
8544;SDS011;4310;51.054;6.994;2022-12-29T00:05:35;28.47;;;27.27;;
8544;SDS011;4310;51.054;6.994;2022-12-29T00:06:39;30.25;;;28.87;;
8544;SDS011;4310;51.054;6.994;2022-12-29T00:07:43;32.08;;;30.77;;
8544;SDS011;4310;51.054;6.994;2022-12-29T00:08:46;33.18;;;31.85;;
8544;SDS011;4310;51.054;6.994;2022-12-29T00:09:50;34.27;;;32.88;;
8544;SDS011;4310;51.054;6.994;2022-12-29T00:12:06;36.45;;;35.05;;
8544;SDS011;4310;51.054;6.994;2022-12-29T00:13:09;36.55;;;35.15;;
8544;SDS011;4310;51.054;6.994;2022-12-29T00:14:31;38.58;;;37.08;;
8544;SDS011;4310;51.054;6.994;2022-12-29T00:17:18;39.20;;;37.60;;
8544;SDS011;4310;51.054;6.994;2022-12-29T00:18:22;39.17;;;37.60;;
8544;SDS011;4310;51.054;6.994;2022-12-29T00:19:26;40.65;;;38.95;;
8544;SDS011;4310;51.054;6.994;2022-12-29T00:20:48;40.43;;;38.80;;
8544;SDS011;4310;51.054;6.994;2022-12-29T00:22:17;40.35;;;38.75;;
8544;SDS011;4310;51.054;6.994;2022-12-29T00:23:38;36.73;;;35.13;;
8544;SDS011;4310;51.054;6.994;2022-12-29T00:25:00;38.67;;;37.17;;
8544;SDS011;4310;51.054;6.994;2022-12-29T00:26:22;36.42;;;35.03;;
8544;SDS011;4310;51.054;6.994;2022-12-29T00:29:11;35.70;;;34.30;;
8544;SDS011;4310;51.054;6.994;2022-12-29T00:30:33;33.42;;;32.13;;
8544;SDS011;4310;51.054;6.994;2022-12-29T00:31:57;33.80;;;32.40;;
8544;SDS011;4310;51.054;6.994;2022-12-29T00:33:19;34.75;;;33.28;;
8544;SDS011;4310;51.054;6.994;2022-12-29T00:35:53;31.50;;;30.30;;
8544;SDS011;4310;51.054;6.994;2022-12-29T00:36:58;31.33;;;30.12;;
8544;SDS011;4310;51.054;6.994;2022-12-29T00:38:03;31.77;;;30.55;;
8544;SDS011;4310;51.054;6.994;2022-12-29T00:39:25;30.20;;;29.10;;
8544;SDS011;4310;51.054;6.994;2022-12-29T00:40:46;29.52;;;28.42;;
8544;SDS011;4310;51.054;6.994;2022-12-29T00:42:08;28.80;;;27.70;;
8544;SDS011;4310;51.054;6.994;2022-12-29T00:43:30;28.07;;;27.07;;
8544;SDS011;4310;51.054;6.994;2022-12-29T00:44:52;27.10;;;26.10;;
8544;SDS011;4310;51.054;6.994;2022-12-29T00:45:56;25.62;;;24.63;;
8544;SDS011;4310;51.054;6.994;2022-12-29T00:46:59;26.93;;;25.92;;
8544;SDS011;4310;51.054;6.994;2022-12-29T00:48:05;26.80;;;25.80;;
8544;SDS011;4310;51.054;6.994;2022-12-29T00:49:10;26.15;;;25.15;;
8544;SDS011;4310;51.054;6.994;2022-12-29T00:50:32;25.05;;;24.15;;
8544;SDS011;4310;51.054;6.994;2022-12-29T00:51:36;23.85;;;22.95;;
8544;SDS011;4310;51.054;6.994;2022-12-29T00:52:39;22.60;;;21.75;;
8544;SDS011;4310;51.054;6.994;2022-12-29T00:54:55;22.58;;;21.77;;
8544;SDS011;4310;51.054;6.994;2022-12-29T00:55:58;22.42;;;21.55;;
8544;SDS011;4310;51.054;6.994;2022-12-29T00:57:03;21.45;;;20.65;;
8544;SDS011;4310;51.054;6.994;2022-12-29T00:59:18;21.37;;;20.57;;
8544;SDS011;4310;51.054;6.994;2022-12-29T01:00:22;21.40;;;20.60;;
8544;SDS011;4310;51.054;6.994;2022-12-29T01:02:37;20.25;;;19.55;;
8544;SDS011;4310;51.054;6.994;2022-12-29T01:03:41;21.42;;;20.62;;
8544;SDS011;4310;51.054;6.994;2022-12-29T01:04:45;19.92;;;19.23;;
8544;SDS011;4310;51.054;6.994;2022-12-29T01:05:48;21.00;;;20.20;;
8544;SDS011;4310;51.054;6.994;2022-12-29T01:06:52;20.43;;;19.65;;
8544;SDS011;4310;51.054;6.994;2022-12-29T01:07:56;20.60;;;19.80;;
8544;SDS011;4310;51.054;6.994;2022-12-29T01:09:00;18.62;;;17.92;;
8544;SDS011;4310;51.054;6.994;2022-12-29T01:10:21;18.77;;;18.07;;
8544;SDS011;4310;51.054;6.994;2022-12-29T01:29:41;41.48;;;39.88;;
8544;SDS011;4310;51.054;6.994;2022-12-29T01:30:45;39.88;;;38.38;;
8544;SDS011;4310;51.054;6.994;2022-12-29T01:31:49;40.23;;;38.73;;
8544;SDS011;4310;51.054;6.994;2022-12-29T01:32:52;39.60;;;38.10;;
8544;SDS011;4310;51.054;6.994;2022-12-29T01:35:08;38.45;;;36.90;;
8544;SDS011;4310;51.054;6.994;2022-12-29T01:36:13;37.60;;;36.17;;
8544;SDS011;4310;51.054;6.994;2022-12-29T01:37:17;36.93;;;35.48;;
8544;SDS011;4310;51.054;6.994;2022-12-29T01:39:32;31.55;;;30.45;;
8544;SDS011;4310;51.054;6.994;2022-12-29T01:40:43;30.43;;;29.23;;
8544;SDS011;4310;51.054;6.994;2022-12-29T01:41:47;28.40;;;27.30;;
8544;SDS011;4310;51.054;6.994;2022-12-29T01:42:50;29.00;;;27.90;;
8544;SDS011;4310;51.054;6.994;2022-12-29T01:43:55;28.17;;;27.17;;
8544;SDS011;4310;51.054;6.994;2022-12-29T01:45:00;28.05;;;27.05;;
8544;SDS011;4310;51.054;6.994;2022-12-29T01:46:04;29.02;;;27.93;;
8544;SDS011;4310;51.054;6.994;2022-12-29T01:47:10;27.50;;;26.50;;
8544;SDS011;4310;51.054;6.994;2022-12-29T01:48:14;27.27;;;26.27;;
8544;SDS011;4310;51.054;6.994;2022-12-29T01:49:19;26.52;;;25.52;;
8544;SDS011;4310;51.054;6.994;2022-12-29T01:50:24;26.35;;;25.45;;
8544;SDS011;4310;51.054;6.994;2022-12-29T01:51:28;25.15;;;24.25;;
8544;SDS011;4310;51.054;6.994;2022-12-29T01:53:47;19.52;;;18.82;;
8544;SDS011;4310;51.054;6.994;2022-12-29T01:54:51;17.65;;;17.05;;
8544;SDS011;4310;51.054;6.994;2022-12-29T01:55:57;15.60;;;15.10;;
8544;SDS011;4310;51.054;6.994;2022-12-29T01:57:03;13.55;;;13.15;;
8544;SDS011;4310;51.054;6.994;2022-12-29T01:58:07;9.55;;;9.25;;
8544;SDS011;4310;51.054;6.994;2022-12-29T01:59:14;6.78;;;6.58;;
8544;SDS011;4310;51.054;6.994;2022-12-29T02:00:18;5.10;;;4.95;;
8544;SDS011;4310;51.054;6.994;2022-12-29T02:01:22;4.20;;;4.10;;
8544;SDS011;4310;51.054;6.994;2022-12-29T02:02:26;3.27;;;3.17;;
8544;SDS011;4310;51.054;6.994;2022-12-29T02:03:29;3.10;;;3.00;;
8544;SDS011;4310;51.054;6.994;2022-12-29T02:04:35;3.00;;;2.90;;
8544;SDS011;4310;51.054;6.994;2022-12-29T02:05:42;2.80;;;2.70;;
8544;SDS011;4310;51.054;6.994;2022-12-29T02:06:46;2.30;;;2.30;;
8544;SDS011;4310;51.054;6.994;2022-12-29T02:07:51;2.33;;;2.22;;
8544;SDS011;4310;51.054;6.994;2022-12-29T02:08:55;2.10;;;2.00;;
8544;SDS011;4310;51.054;6.994;2022-12-29T02:09:59;1.50;;;1.50;;
8544;SDS011;4310;51.054;6.994;2022-12-29T02:11:03;1.52;;;1.50;;
8544;SDS011;4310;51.054;6.994;2022-12-29T02:12:07;1.30;;;1.30;;
8544;SDS011;4310;51.054;6.994;2022-12-29T02:13:11;1.22;;;1.20;;
8544;SDS011;4310;51.054;6.994;2022-12-29T02:14:14;1.60;;;1.60;;
8544;SDS011;4310;51.054;6.994;2022-12-29T02:15:18;1.40;;;1.40;;
8544;SDS011;4310;51.054;6.994;2022-12-29T02:16:30;1.70;;;1.60;;
8544;SDS011;4310;51.054;6.994;2022-12-29T02:17:38;1.30;;;1.30;;
8544;SDS011;4310;51.054;6.994;2022-12-29T02:22:42;1.05;;;1.00;;
8544;SDS011;4310;51.054;6.994;2022-12-29T02:23:57;1.00;;;1.00;;
8544;SDS011;4310;51.054;6.994;2022-12-29T02:25:09;1.10;;;1.10;;
8544;SDS011;4310;51.054;6.994;2022-12-29T02:26:18;1.17;;;1.17;;
8544;SDS011;4310;51.054;6.994;2022-12-29T02:30:03;1.10;;;1.00;;
8544;SDS011;4310;51.054;6.994;2022-12-29T02:31:10;1.10;;;1.00;;
8544;SDS011;4310;51.054;6.994;2022-12-29T02:32:16;1.02;;;1.00;;
8544;SDS011;4310;51.054;6.994;2022-12-29T02:33:23;0.93;;;0.90;;
8544;SDS011;4310;51.054;6.994;2022-12-29T02:34:29;1.12;;;1.07;;
8544;SDS011;4310;51.054;6.994;2022-12-29T02:35:33;1.50;;;1.00;;
8544;SDS011;4310;51.054;6.994;2022-12-29T02:36:40;1.20;;;0.90;;
8544;SDS011;4310;51.054;6.994;2022-12-29T02:37:43;0.88;;;0.88;;
8544;SDS011;4310;51.054;6.994;2022-12-29T02:38:50;1.30;;;1.00;;
8544;SDS011;4310;51.054;6.994;2022-12-29T02:39:56;1.00;;;1.00;;
8544;SDS011;4310;51.054;6.994;2022-12-29T02:42:13;1.00;;;0.90;;
8544;SDS011;4310;51.054;6.994;2022-12-29T02:43:21;0.98;;;0.98;;
8544;SDS011;4310;51.054;6.994;2022-12-29T02:44:26;1.47;;;1.00;;
8544;SDS011;4310;51.054;6.994;2022-12-29T02:45:31;0.95;;;0.95;;
8544;SDS011;4310;51.054;6.994;2022-12-29T02:46:36;1.27;;;1.00;;
8544;SDS011;4310;51.054;6.994;2022-12-29T02:47:41;1.50;;;1.00;;
8544;SDS011;4310;51.054;6.994;2022-12-29T02:48:48;1.17;;;1.07;;
8544;SDS011;4310;51.054;6.994;2022-12-29T02:49:53;1.30;;;1.10;;
8544;SDS011;4310;51.054;6.994;2022-12-29T02:52:09;1.33;;;1.00;;
8544;SDS011;4310;51.054;6.994;2022-12-29T02:53:15;1.17;;;0.90;;
8544;SDS011;4310;51.054;6.994;2022-12-29T02:54:21;1.20;;;1.10;;
8544;SDS011;4310;51.054;6.994;2022-12-29T02:55:48;4.25;;;1.20;;
8544;SDS011;4310;51.054;6.994;2022-12-29T02:56:52;1.42;;;1.07;;
8544;SDS011;4310;51.054;6.994;2022-12-29T02:59:18;1.90;;;1.00;;
8544;SDS011;4310;51.054;6.994;2022-12-29T03:00:22;1.15;;;1.02;;
8544;SDS011;4310;51.054;6.994;2022-12-29T03:04:18;1.00;;;1.00;;
8544;SDS011;4310;51.054;6.994;2022-12-29T03:05:32;1.50;;;1.10;;
8544;SDS011;4310;51.054;6.994;2022-12-29T03:06:38;1.27;;;1.10;;
8544;SDS011;4310;51.054;6.994;2022-12-29T03:07:43;1.07;;;0.95;;
8544;SDS011;4310;51.054;6.994;2022-12-29T03:08:49;1.62;;;1.00;;
8544;SDS011;4310;51.054;6.994;2022-12-29T03:09:55;1.65;;;1.00;;
8544;SDS011;4310;51.054;6.994;2022-12-29T03:10:59;1.40;;;1.20;;
8544;SDS011;4310;51.054;6.994;2022-12-29T03:12:07;1.25;;;1.15;;
8544;SDS011;4310;51.054;6.994;2022-12-29T03:13:12;1.07;;;1.07;;
8544;SDS011;4310;51.054;6.994;2022-12-29T03:14:36;1.40;;;1.30;;
8544;SDS011;4310;51.054;6.994;2022-12-29T03:16:00;0.90;;;0.90;;
8544;SDS011;4310;51.054;6.994;2022-12-29T03:18:20;1.00;;;1.00;;
8544;SDS011;4310;51.054;6.994;2022-12-29T03:19:28;0.70;;;0.70;;
8544;SDS011;4310;51.054;6.994;2022-12-29T03:21:45;1.20;;;1.10;;
8544;SDS011;4310;51.054;6.994;2022-12-29T03:24:19;1.30;;;1.30;;
8544;SDS011;4310;51.054;6.994;2022-12-29T03:25:25;1.50;;;1.30;;
8544;SDS011;4310;51.054;6.994;2022-12-29T03:27:41;1.55;;;1.45;;
8544;SDS011;4310;51.054;6.994;2022-12-29T03:29:58;1.60;;;1.57;;
8544;SDS011;4310;51.054;6.994;2022-12-29T03:31:03;1.77;;;1.70;;
8544;SDS011;4310;51.054;6.994;2022-12-29T03:32:08;1.60;;;1.50;;
8544;SDS011;4310;51.054;6.994;2022-12-29T03:33:12;1.80;;;1.70;;
8544;SDS011;4310;51.054;6.994;2022-12-29T03:34:17;1.70;;;1.70;;
8544;SDS011;4310;51.054;6.994;2022-12-29T03:35:22;1.72;;;1.72;;
8544;SDS011;4310;51.054;6.994;2022-12-29T03:36:27;1.50;;;1.50;;
8544;SDS011;4310;51.054;6.994;2022-12-29T03:37:34;1.40;;;1.40;;
8544;SDS011;4310;51.054;6.994;2022-12-29T03:38:40;1.80;;;1.70;;
8544;SDS011;4310;51.054;6.994;2022-12-29T03:39:43;2.00;;;1.90;;
8544;SDS011;4310;51.054;6.994;2022-12-29T03:40:48;1.93;;;1.87;;
8544;SDS011;4310;51.054;6.994;2022-12-29T03:41:54;1.75;;;1.75;;
8544;SDS011;4310;51.054;6.994;2022-12-29T03:42:57;1.80;;;1.80;;
8544;SDS011;4310;51.054;6.994;2022-12-29T03:44:05;1.80;;;1.80;;
8544;SDS011;4310;51.054;6.994;2022-12-29T03:45:10;1.70;;;1.70;;
8544;SDS011;4310;51.054;6.994;2022-12-29T03:46:15;1.75;;;1.65;;
8544;SDS011;4310;51.054;6.994;2022-12-29T03:47:19;1.50;;;1.50;;
8544;SDS011;4310;51.054;6.994;2022-12-29T03:49:35;1.60;;;1.60;;
8544;SDS011;4310;51.054;6.994;2022-12-29T03:50:39;1.80;;;1.70;;
8544;SDS011;4310;51.054;6.994;2022-12-29T03:51:43;2.50;;;1.70;;
8544;SDS011;4310;51.054;6.994;2022-12-29T03:52:47;1.62;;;1.62;;
8544;SDS011;4310;51.054;6.994;2022-12-29T03:53:51;1.70;;;1.70;;
8544;SDS011;4310;51.054;6.994;2022-12-29T03:54:54;1.60;;;1.60;;
8544;SDS011;4310;51.054;6.994;2022-12-29T03:55:58;1.77;;;1.77;;
8544;SDS011;4310;51.054;6.994;2022-12-29T03:57:02;1.90;;;1.80;;
8544;SDS011;4310;51.054;6.994;2022-12-29T03:58:06;1.60;;;1.60;;
8544;SDS011;4310;51.054;6.994;2022-12-29T03:59:09;1.90;;;1.80;;
8544;SDS011;4310;51.054;6.994;2022-12-29T04:01:25;2.10;;;2.00;;
8544;SDS011;4310;51.054;6.994;2022-12-29T04:02:29;2.10;;;2.00;;
8544;SDS011;4310;51.054;6.994;2022-12-29T04:03:33;2.27;;;1.85;;
8544;SDS011;4310;51.054;6.994;2022-12-29T04:04:36;1.75;;;1.75;;
8544;SDS011;4310;51.054;6.994;2022-12-29T04:05:40;1.70;;;1.60;;
8544;SDS011;4310;51.054;6.994;2022-12-29T04:06:44;1.50;;;1.50;;
8544;SDS011;4310;51.054;6.994;2022-12-29T04:07:48;1.60;;;1.35;;
8544;SDS011;4310;51.054;6.994;2022-12-29T04:08:52;2.17;;;1.70;;
8544;SDS011;4310;51.054;6.994;2022-12-29T04:09:56;1.70;;;1.60;;
8544;SDS011;4310;51.054;6.994;2022-12-29T04:11:00;1.40;;;1.30;;
8544;SDS011;4310;51.054;6.994;2022-12-29T04:12:04;1.60;;;1.50;;
8544;SDS011;4310;51.054;6.994;2022-12-29T04:13:08;1.60;;;1.50;;
8544;SDS011;4310;51.054;6.994;2022-12-29T04:14:11;1.80;;;1.70;;
8544;SDS011;4310;51.054;6.994;2022-12-29T04:15:15;1.57;;;1.47;;
8544;SDS011;4310;51.054;6.994;2022-12-29T04:16:19;1.45;;;1.45;;
8544;SDS011;4310;51.054;6.994;2022-12-29T04:17:23;1.70;;;1.60;;
8544;SDS011;4310;51.054;6.994;2022-12-29T04:18:26;1.75;;;1.65;;
8544;SDS011;4310;51.054;6.994;2022-12-29T04:19:30;1.77;;;1.67;;
8544;SDS011;4310;51.054;6.994;2022-12-29T04:20:34;1.70;;;1.60;;
8544;SDS011;4310;51.054;6.994;2022-12-29T04:21:56;1.70;;;1.60;;
8544;SDS011;4310;51.054;6.994;2022-12-29T04:23:00;1.82;;;1.72;;
8544;SDS011;4310;51.054;6.994;2022-12-29T04:24:05;1.57;;;1.57;;
8544;SDS011;4310;51.054;6.994;2022-12-29T04:26:21;1.60;;;1.50;;
8544;SDS011;4310;51.054;6.994;2022-12-29T04:27:24;1.55;;;1.50;;
8544;SDS011;4310;51.054;6.994;2022-12-29T04:28:28;1.60;;;1.50;;
8544;SDS011;4310;51.054;6.994;2022-12-29T04:29:32;1.90;;;1.80;;
8544;SDS011;4310;51.054;6.994;2022-12-29T04:30:38;1.90;;;1.90;;
8544;SDS011;4310;51.054;6.994;2022-12-29T04:32:53;2.15;;;2.05;;
8544;SDS011;4310;51.054;6.994;2022-12-29T04:33:57;1.82;;;1.80;;
8544;SDS011;4310;51.054;6.994;2022-12-29T04:35:02;1.90;;;1.90;;
8544;SDS011;4310;51.054;6.994;2022-12-29T04:36:06;1.93;;;1.83;;
8544;SDS011;4310;51.054;6.994;2022-12-29T04:37:10;2.05;;;2.00;;
8544;SDS011;4310;51.054;6.994;2022-12-29T04:39:25;1.80;;;1.80;;
8544;SDS011;4310;51.054;6.994;2022-12-29T04:41:40;1.67;;;1.57;;
8544;SDS011;4310;51.054;6.994;2022-12-29T04:42:45;1.80;;;1.70;;
8544;SDS011;4310;51.054;6.994;2022-12-29T04:43:48;1.92;;;1.90;;
8544;SDS011;4310;51.054;6.994;2022-12-29T04:44:52;2.00;;;1.90;;
8544;SDS011;4310;51.054;6.994;2022-12-29T04:45:56;2.10;;;2.00;;
8544;SDS011;4310;51.054;6.994;2022-12-29T04:47:02;2.10;;;1.90;;
8544;SDS011;4310;51.054;6.994;2022-12-29T04:48:05;2.52;;;1.50;;
8544;SDS011;4310;51.054;6.994;2022-12-29T04:49:10;1.60;;;1.60;;
8544;SDS011;4310;51.054;6.994;2022-12-29T04:50:13;1.50;;;1.50;;
8544;SDS011;4310;51.054;6.994;2022-12-29T04:51:17;1.80;;;1.70;;
8544;SDS011;4310;51.054;6.994;2022-12-29T04:53:32;1.62;;;1.52;;
8544;SDS011;4310;51.054;6.994;2022-12-29T04:54:37;1.25;;;1.25;;
8544;SDS011;4310;51.054;6.994;2022-12-29T04:55:42;1.40;;;1.40;;
8544;SDS011;4310;51.054;6.994;2022-12-29T04:56:46;1.60;;;1.50;;
8544;SDS011;4310;51.054;6.994;2022-12-29T04:57:49;1.57;;;1.40;;
8544;SDS011;4310;51.054;6.994;2022-12-29T05:00:06;1.62;;;1.30;;
8544;SDS011;4310;51.054;6.994;2022-12-29T05:01:11;1.98;;;1.30;;
8544;SDS011;4310;51.054;6.994;2022-12-29T05:02:15;1.55;;;1.45;;
8544;SDS011;4310;51.054;6.994;2022-12-29T05:03:18;1.47;;;1.40;;
8544;SDS011;4310;51.054;6.994;2022-12-29T05:04:22;1.82;;;1.50;;
8544;SDS011;4310;51.054;6.994;2022-12-29T05:05:26;1.50;;;1.30;;
8544;SDS011;4310;51.054;6.994;2022-12-29T05:06:30;1.30;;;1.20;;
8544;SDS011;4310;51.054;6.994;2022-12-29T05:07:33;1.42;;;1.30;;
8544;SDS011;4310;51.054;6.994;2022-12-29T05:08:37;1.57;;;1.30;;
8544;SDS011;4310;51.054;6.994;2022-12-29T05:09:41;1.50;;;1.47;;
8544;SDS011;4310;51.054;6.994;2022-12-29T05:10:45;1.42;;;1.40;;
8544;SDS011;4310;51.054;6.994;2022-12-29T05:13:04;1.47;;;1.37;;
8544;SDS011;4310;51.054;6.994;2022-12-29T05:15:19;1.30;;;1.30;;
8544;SDS011;4310;51.054;6.994;2022-12-29T05:16:23;1.20;;;1.20;;
8544;SDS011;4310;51.054;6.994;2022-12-29T05:17:26;1.30;;;1.20;;
8544;SDS011;4310;51.054;6.994;2022-12-29T05:18:30;1.30;;;1.30;;
8544;SDS011;4310;51.054;6.994;2022-12-29T05:19:34;1.50;;;1.37;;
8544;SDS011;4310;51.054;6.994;2022-12-29T05:20:38;1.57;;;1.30;;
8544;SDS011;4310;51.054;6.994;2022-12-29T05:21:41;1.20;;;1.20;;
8544;SDS011;4310;51.054;6.994;2022-12-29T05:22:45;1.37;;;1.37;;
8544;SDS011;4310;51.054;6.994;2022-12-29T05:23:49;1.35;;;1.35;;
8544;SDS011;4310;51.054;6.994;2022-12-29T05:24:53;1.50;;;1.40;;
8544;SDS011;4310;51.054;6.994;2022-12-29T05:25:57;1.40;;;1.30;;
8544;SDS011;4310;51.054;6.994;2022-12-29T05:27:00;1.20;;;1.20;;
8544;SDS011;4310;51.054;6.994;2022-12-29T05:28:04;1.50;;;1.40;;
8544;SDS011;4310;51.054;6.994;2022-12-29T05:29:08;1.30;;;1.20;;
8544;SDS011;4310;51.054;6.994;2022-12-29T05:30:12;1.20;;;1.20;;
8544;SDS011;4310;51.054;6.994;2022-12-29T05:31:16;1.35;;;1.25;;
8544;SDS011;4310;51.054;6.994;2022-12-29T05:32:20;1.40;;;1.30;;
8544;SDS011;4310;51.054;6.994;2022-12-29T05:33:24;1.35;;;1.25;;
8544;SDS011;4310;51.054;6.994;2022-12-29T05:34:27;1.12;;;1.12;;
8544;SDS011;4310;51.054;6.994;2022-12-29T05:36:42;1.07;;;1.02;;
8544;SDS011;4310;51.054;6.994;2022-12-29T05:37:46;1.80;;;1.10;;
8544;SDS011;4310;51.054;6.994;2022-12-29T05:40:02;1.02;;;1.00;;
8544;SDS011;4310;51.054;6.994;2022-12-29T05:41:05;0.85;;;0.85;;
8544;SDS011;4310;51.054;6.994;2022-12-29T05:42:09;0.90;;;0.90;;
8544;SDS011;4310;51.054;6.994;2022-12-29T05:43:13;0.80;;;0.80;;
8544;SDS011;4310;51.054;6.994;2022-12-29T05:44:17;0.80;;;0.80;;
8544;SDS011;4310;51.054;6.994;2022-12-29T05:45:21;2.15;;;1.20;;
8544;SDS011;4310;51.054;6.994;2022-12-29T05:46:24;1.00;;;1.00;;
8544;SDS011;4310;51.054;6.994;2022-12-29T05:47:28;1.10;;;1.00;;
8544;SDS011;4310;51.054;6.994;2022-12-29T05:48:32;0.70;;;0.70;;
8544;SDS011;4310;51.054;6.994;2022-12-29T05:49:36;0.65;;;0.57;;
8544;SDS011;4310;51.054;6.994;2022-12-29T05:50:40;0.70;;;0.70;;
8544;SDS011;4310;51.054;6.994;2022-12-29T05:52:55;0.70;;;0.70;;
8544;SDS011;4310;51.054;6.994;2022-12-29T05:53:58;0.93;;;0.70;;
8544;SDS011;4310;51.054;6.994;2022-12-29T05:55:02;1.02;;;0.88;;
8544;SDS011;4310;51.054;6.994;2022-12-29T05:56:06;1.00;;;1.00;;
8544;SDS011;4310;51.054;6.994;2022-12-29T05:58:22;1.27;;;1.00;;
8544;SDS011;4310;51.054;6.994;2022-12-29T05:59:25;1.47;;;1.07;;
8544;SDS011;4310;51.054;6.994;2022-12-29T06:00:29;0.88;;;0.88;;
8544;SDS011;4310;51.054;6.994;2022-12-29T06:01:33;1.52;;;0.90;;
8544;SDS011;4310;51.054;6.994;2022-12-29T06:02:37;1.10;;;0.82;;
8544;SDS011;4310;51.054;6.994;2022-12-29T06:03:40;1.32;;;1.10;;
8544;SDS011;4310;51.054;6.994;2022-12-29T06:04:44;2.00;;;1.00;;
8544;SDS011;4310;51.054;6.994;2022-12-29T06:05:48;1.40;;;0.78;;
8544;SDS011;4310;51.054;6.994;2022-12-29T06:06:52;1.27;;;0.80;;
8544;SDS011;4310;51.054;6.994;2022-12-29T06:07:55;1.07;;;0.75;;
8544;SDS011;4310;51.054;6.994;2022-12-29T06:08:59;0.70;;;0.70;;
8544;SDS011;4310;51.054;6.994;2022-12-29T06:10:03;1.10;;;0.90;;
8544;SDS011;4310;51.054;6.994;2022-12-29T06:11:07;0.80;;;0.80;;
8544;SDS011;4310;51.054;6.994;2022-12-29T06:12:11;1.40;;;0.75;;
8544;SDS011;4310;51.054;6.994;2022-12-29T06:13:14;0.72;;;0.72;;
8544;SDS011;4310;51.054;6.994;2022-12-29T06:14:18;1.00;;;0.88;;
8544;SDS011;4310;51.054;6.994;2022-12-29T06:15:22;1.77;;;0.90;;
8544;SDS011;4310;51.054;6.994;2022-12-29T06:16:26;0.80;;;0.80;;
8544;SDS011;4310;51.054;6.994;2022-12-29T06:17:30;0.85;;;0.85;;
8544;SDS011;4310;51.054;6.994;2022-12-29T06:18:33;0.70;;;0.70;;
8544;SDS011;4310;51.054;6.994;2022-12-29T06:19:37;1.47;;;0.90;;
8544;SDS011;4310;51.054;6.994;2022-12-29T06:20:41;1.10;;;0.78;;
8544;SDS011;4310;51.054;6.994;2022-12-29T06:21:44;1.32;;;0.72;;
8544;SDS011;4310;51.054;6.994;2022-12-29T06:22:48;0.60;;;0.60;;
8544;SDS011;4310;51.054;6.994;2022-12-29T06:23:52;1.70;;;0.60;;
8544;SDS011;4310;51.054;6.994;2022-12-29T06:24:55;0.80;;;0.80;;
8544;SDS011;4310;51.054;6.994;2022-12-29T06:25:59;1.50;;;0.60;;
8544;SDS011;4310;51.054;6.994;2022-12-29T06:29:26;1.55;;;0.80;;
8544;SDS011;4310;51.054;6.994;2022-12-29T06:30:30;0.78;;;0.78;;
8544;SDS011;4310;51.054;6.994;2022-12-29T06:31:34;0.70;;;0.70;;
8544;SDS011;4310;51.054;6.994;2022-12-29T06:32:37;0.70;;;0.70;;
8544;SDS011;4310;51.054;6.994;2022-12-29T06:33:41;0.60;;;0.60;;
8544;SDS011;4310;51.054;6.994;2022-12-29T06:34:45;1.00;;;0.85;;
8544;SDS011;4310;51.054;6.994;2022-12-29T06:35:51;1.05;;;0.80;;
8544;SDS011;4310;51.054;6.994;2022-12-29T06:36:55;2.27;;;1.00;;
8544;SDS011;4310;51.054;6.994;2022-12-29T06:37:59;0.80;;;0.80;;
8544;SDS011;4310;51.054;6.994;2022-12-29T06:39:03;1.47;;;0.80;;
8544;SDS011;4310;51.054;6.994;2022-12-29T06:40:07;1.70;;;0.70;;
8544;SDS011;4310;51.054;6.994;2022-12-29T06:41:11;0.95;;;0.80;;
8544;SDS011;4310;51.054;6.994;2022-12-29T06:42:15;0.72;;;0.65;;
8544;SDS011;4310;51.054;6.994;2022-12-29T06:44:30;1.37;;;0.80;;
8544;SDS011;4310;51.054;6.994;2022-12-29T06:45:34;2.27;;;0.82;;
8544;SDS011;4310;51.054;6.994;2022-12-29T06:46:38;1.05;;;0.90;;
8544;SDS011;4310;51.054;6.994;2022-12-29T06:47:42;1.40;;;1.00;;
8544;SDS011;4310;51.054;6.994;2022-12-29T06:48:45;1.50;;;0.90;;
8544;SDS011;4310;51.054;6.994;2022-12-29T06:49:49;1.15;;;0.82;;
8544;SDS011;4310;51.054;6.994;2022-12-29T06:52:04;2.27;;;0.90;;
8544;SDS011;4310;51.054;6.994;2022-12-29T06:53:08;1.75;;;0.80;;
8544;SDS011;4310;51.054;6.994;2022-12-29T06:54:12;1.02;;;0.90;;
8544;SDS011;4310;51.054;6.994;2022-12-29T06:55:16;1.30;;;0.90;;
8544;SDS011;4310;51.054;6.994;2022-12-29T06:57:31;1.30;;;1.10;;
8544;SDS011;4310;51.054;6.994;2022-12-29T06:58:35;1.75;;;0.90;;
8544;SDS011;4310;51.054;6.994;2022-12-29T06:59:38;1.20;;;0.95;;
8544;SDS011;4310;51.054;6.994;2022-12-29T07:00:42;1.22;;;0.95;;
8544;SDS011;4310;51.054;6.994;2022-12-29T07:01:46;1.57;;;0.90;;
8544;SDS011;4310;51.054;6.994;2022-12-29T07:02:50;1.40;;;0.80;;
8544;SDS011;4310;51.054;6.994;2022-12-29T07:03:53;1.52;;;0.90;;
8544;SDS011;4310;51.054;6.994;2022-12-29T07:04:57;1.07;;;0.85;;
8544;SDS011;4310;51.054;6.994;2022-12-29T07:06:05;1.05;;;0.90;;
8544;SDS011;4310;51.054;6.994;2022-12-29T07:07:08;1.05;;;0.85;;
8544;SDS011;4310;51.054;6.994;2022-12-29T07:08:12;1.75;;;0.90;;
8544;SDS011;4310;51.054;6.994;2022-12-29T07:09:16;1.52;;;1.07;;
8544;SDS011;4310;51.054;6.994;2022-12-29T07:10:20;1.80;;;1.02;;
8544;SDS011;4310;51.054;6.994;2022-12-29T07:11:24;1.22;;;0.90;;
8544;SDS011;4310;51.054;6.994;2022-12-29T07:13:39;1.60;;;1.00;;
8544;SDS011;4310;51.054;6.994;2022-12-29T07:14:43;1.90;;;1.00;;
8544;SDS011;4310;51.054;6.994;2022-12-29T07:15:46;1.20;;;0.95;;
8544;SDS011;4310;51.054;6.994;2022-12-29T07:16:50;0.80;;;0.80;;
8544;SDS011;4310;51.054;6.994;2022-12-29T07:17:54;0.87;;;0.67;;
8544;SDS011;4310;51.054;6.994;2022-12-29T07:18:58;1.40;;;0.90;;
8544;SDS011;4310;51.054;6.994;2022-12-29T07:20:01;1.70;;;0.80;;
8544;SDS011;4310;51.054;6.994;2022-12-29T07:21:05;1.82;;;0.90;;
8544;SDS011;4310;51.054;6.994;2022-12-29T07:22:09;1.02;;;0.90;;
8544;SDS011;4310;51.054;6.994;2022-12-29T07:24:25;1.27;;;0.80;;
8544;SDS011;4310;51.054;6.994;2022-12-29T07:25:28;1.52;;;1.02;;
8544;SDS011;4310;51.054;6.994;2022-12-29T07:27:43;1.62;;;0.90;;
8544;SDS011;4310;51.054;6.994;2022-12-29T07:28:47;1.40;;;1.10;;
8544;SDS011;4310;51.054;6.994;2022-12-29T07:29:51;1.40;;;1.00;;
8544;SDS011;4310;51.054;6.994;2022-12-29T07:30:55;1.27;;;1.10;;
8544;SDS011;4310;51.054;6.994;2022-12-29T07:33:10;1.20;;;0.80;;
8544;SDS011;4310;51.054;6.994;2022-12-29T07:34:13;2.20;;;1.02;;
8544;SDS011;4310;51.054;6.994;2022-12-29T07:35:17;1.30;;;0.93;;
8544;SDS011;4310;51.054;6.994;2022-12-29T07:36:21;0.80;;;0.80;;
8544;SDS011;4310;51.054;6.994;2022-12-29T07:37:24;2.20;;;1.05;;
8544;SDS011;4310;51.054;6.994;2022-12-29T07:38:28;1.60;;;0.80;;
8544;SDS011;4310;51.054;6.994;2022-12-29T07:39:32;1.85;;;1.10;;
8544;SDS011;4310;51.054;6.994;2022-12-29T07:40:36;0.90;;;0.80;;
8544;SDS011;4310;51.054;6.994;2022-12-29T07:41:39;0.78;;;0.78;;
8544;SDS011;4310;51.054;6.994;2022-12-29T07:42:43;1.95;;;0.90;;
8544;SDS011;4310;51.054;6.994;2022-12-29T07:43:47;2.20;;;1.10;;
8544;SDS011;4310;51.054;6.994;2022-12-29T07:44:51;1.37;;;1.12;;
8544;SDS011;4310;51.054;6.994;2022-12-29T07:45:55;1.15;;;0.93;;
8544;SDS011;4310;51.054;6.994;2022-12-29T07:48:10;1.90;;;1.20;;
8544;SDS011;4310;51.054;6.994;2022-12-29T07:49:13;2.45;;;1.20;;
8544;SDS011;4310;51.054;6.994;2022-12-29T07:50:17;1.42;;;1.10;;
8544;SDS011;4310;51.054;6.994;2022-12-29T07:51:21;0.80;;;0.80;;
8544;SDS011;4310;51.054;6.994;2022-12-29T07:52:25;1.20;;;1.10;;
8544;SDS011;4310;51.054;6.994;2022-12-29T07:53:28;1.83;;;1.20;;
8544;SDS011;4310;51.054;6.994;2022-12-29T07:54:32;2.20;;;1.40;;
8544;SDS011;4310;51.054;6.994;2022-12-29T07:55:36;3.25;;;1.35;;
8544;SDS011;4310;51.054;6.994;2022-12-29T07:56:39;2.50;;;1.30;;
8544;SDS011;4310;51.054;6.994;2022-12-29T07:57:43;1.40;;;1.30;;
8544;SDS011;4310;51.054;6.994;2022-12-29T07:58:47;1.22;;;1.05;;
8544;SDS011;4310;51.054;6.994;2022-12-29T07:59:51;2.42;;;1.35;;
8544;SDS011;4310;51.054;6.994;2022-12-29T08:00:54;1.40;;;1.30;;
8544;SDS011;4310;51.054;6.994;2022-12-29T08:01:58;0.90;;;0.90;;
8544;SDS011;4310;51.054;6.994;2022-12-29T08:03:02;1.25;;;1.00;;
8544;SDS011;4310;51.054;6.994;2022-12-29T08:04:06;2.17;;;1.10;;